createdAt,value
2022-10-26T00:01:53.655Z,13.46
2022-10-26T00:07:15.605Z,13.47
2022-10-26T00:12:37.437Z,13.56
2022-10-26T00:17:59.803Z,13.61
2022-10-26T00:23:21.655Z,13.67
2022-10-26T00:28:43.493Z,13.71
2022-10-26T00:34:06.180Z,13.67
2022-10-26T00:39:28.011Z,13.62
2022-10-26T00:44:49.753Z,13.55
2022-10-26T00:50:33.380Z,13.63
2022-10-26T00:55:56.494Z,13.65
2022-10-26T01:01:18.409Z,13.63
2022-10-26T01:06:42.019Z,13.69
2022-10-26T01:12:04.194Z,13.67
2022-10-26T01:17:39.293Z,13.71
2022-10-26T01:23:07.105Z,13.66
2022-10-26T01:28:59.996Z,13.73
2022-10-26T01:34:32.859Z,13.78
2022-10-26T01:40:04.379Z,13.82
2022-10-26T01:45:28.121Z,13.85
2022-10-26T01:50:54.574Z,13.81
2022-10-26T01:56:21.324Z,13.76
2022-10-26T02:02:01.897Z,13.78
2022-10-26T02:07:34.565Z,13.72
2022-10-26T02:13:02.177Z,13.75
2022-10-26T02:19:00.921Z,13.74
2022-10-26T02:29:43.954Z,13.68
2022-10-26T02:35:06.277Z,13.57
2022-10-26T02:40:29.394Z,13.67
2022-10-26T02:45:56.392Z,13.71
2022-10-26T02:51:25.176Z,13.67
2022-10-26T02:57:01.710Z,13.66
2022-10-26T03:02:23.851Z,13.17
2022-10-26T03:07:45.696Z,13.46
2022-10-26T03:13:07.711Z,13.52
2022-10-26T03:18:29.532Z,13.56
2022-10-26T03:23:51.463Z,13.54
2022-10-26T03:29:13.275Z,13.46
2022-10-26T03:34:35.125Z,13.46
2022-10-26T03:39:56.916Z,13.54
2022-10-26T03:45:18.767Z,13.60
2022-10-26T03:50:40.574Z,13.59
2022-10-26T03:56:02.574Z,13.57
2022-10-26T04:01:24.466Z,13.61
2022-10-26T04:12:13.216Z,13.41
2022-10-26T04:17:35.102Z,13.39
2022-10-26T04:23:01.468Z,13.15
2022-10-26T04:28:23.304Z,13.32
2022-10-26T04:33:45.151Z,13.39
2022-10-26T04:39:06.993Z,13.28
2022-10-26T04:44:29.184Z,13.24
2022-10-26T04:49:51.045Z,13.31
2022-10-26T04:55:12.911Z,13.20
2022-10-26T05:00:35.002Z,13.10
2022-10-26T05:05:59.276Z,13.20
2022-10-26T05:11:21.077Z,13.25
2022-10-26T05:16:42.887Z,13.26
2022-10-26T05:22:04.854Z,13.34
2022-10-26T05:27:26.767Z,13.26
2022-10-26T05:32:58.825Z,13.30
2022-10-26T05:38:20.712Z,13.24
2022-10-26T05:43:42.544Z,13.26
2022-10-26T05:49:04.379Z,13.28
2022-10-26T05:54:26.253Z,13.35
2022-10-26T05:59:48.363Z,13.35
2022-10-26T06:05:11.511Z,13.41
2022-10-26T06:10:33.837Z,13.42
2022-10-26T06:16:07.602Z,13.46
2022-10-26T06:21:51.143Z,13.58
2022-10-26T06:27:18.619Z,13.53
2022-10-26T06:32:46.469Z,13.61
2022-10-26T06:38:14.485Z,13.69
2022-10-26T06:43:36.649Z,13.76
2022-10-26T06:49:08.221Z,13.86
2022-10-26T06:54:48.400Z,13.96
2022-10-26T07:05:53.721Z,14.05
2022-10-26T07:11:15.558Z,14.04
2022-10-26T07:16:37.580Z,14.14
2022-10-26T07:21:59.512Z,14.23
2022-10-26T07:27:21.344Z,14.50
2022-10-26T07:32:44.327Z,14.65
2022-10-26T07:38:07.107Z,14.68
2022-10-26T07:43:29.021Z,14.84
2022-10-26T07:48:50.844Z,14.76
2022-10-26T07:54:12.701Z,14.82
2022-10-26T07:59:34.503Z,14.89
2022-10-26T08:04:56.325Z,14.78
2022-10-26T08:10:18.164Z,14.66
2022-10-26T08:15:40.181Z,15.01
2022-10-26T08:21:11.339Z,15.18
2022-10-26T08:26:34.289Z,15.27
2022-10-26T08:31:56.163Z,15.21
2022-10-26T08:37:18.039Z,15.46
2022-10-26T08:42:44.995Z,14.97
2022-10-26T08:48:15.871Z,14.72
2022-10-26T08:53:50.767Z,14.65
2022-10-26T08:59:24.519Z,14.49
2022-10-26T09:04:46.602Z,14.26
2022-10-26T09:16:22.253Z,13.96
2022-10-26T09:21:55.953Z,13.94
2022-10-26T09:27:27.973Z,14.36
2022-10-26T09:32:54.455Z,14.30
2022-10-26T09:38:25.967Z,14.53
2022-10-26T09:43:55.000Z,14.64
2022-10-26T09:49:18.542Z,14.59
2022-10-26T09:54:40.638Z,14.59
2022-10-26T10:00:02.676Z,14.54
2022-10-26T10:11:15.058Z,14.35
2022-10-26T10:16:36.947Z,14.88
2022-10-26T10:22:00.621Z,14.98
2022-10-26T10:27:23.226Z,14.72
2022-10-26T10:32:45.092Z,14.96
2022-10-26T10:38:12.482Z,15.10
2022-10-26T10:43:34.409Z,15.38
2022-10-26T10:49:03.602Z,15.58
2022-10-26T10:54:31.186Z,15.70
2022-10-26T11:00:02.088Z,15.45
2022-10-26T11:05:57.921Z,15.21
2022-10-26T11:11:31.842Z,15.32
2022-10-26T11:17:06.785Z,15.98
2022-10-26T11:22:35.157Z,15.93
2022-10-26T11:28:06.029Z,16.01
2022-10-26T11:34:13.666Z,15.93
2022-10-26T11:39:47.051Z,16.05
2022-10-26T11:45:19.890Z,16.10
2022-10-26T11:50:50.481Z,16.05
2022-10-26T11:56:30.664Z,15.83
2022-10-26T12:02:14.404Z,15.82
2022-10-26T12:07:40.281Z,15.80
2022-10-26T12:13:27.030Z,15.40
2022-10-26T12:18:57.457Z,15.70
2022-10-26T12:24:30.734Z,15.88
2022-10-26T12:30:15.223Z,15.64
2022-10-26T12:35:44.013Z,15.49
2022-10-26T12:41:05.871Z,15.29
2022-10-26T12:46:27.623Z,15.57
2022-10-26T12:51:49.639Z,15.82
2022-10-26T12:57:49.904Z,15.40
2022-10-26T13:03:34.718Z,15.51
2022-10-26T13:09:01.902Z,15.54
2022-10-26T13:14:38.610Z,15.40
2022-10-26T13:20:03.835Z,15.33
2022-10-26T13:25:28.541Z,15.28
2022-10-26T13:30:50.451Z,15.44
2022-10-26T13:36:32.209Z,15.54
2022-10-26T13:41:55.510Z,15.68
2022-10-26T13:47:50.190Z,15.56
2022-10-26T13:53:41.181Z,15.41
2022-10-26T13:59:08.377Z,15.41
2022-10-26T14:04:30.365Z,15.29
2022-10-26T14:09:54.443Z,15.22
2022-10-26T14:15:18.638Z,15.06
2022-10-26T14:20:40.480Z,14.90
2022-10-26T14:26:02.814Z,14.73
2022-10-26T14:31:29.594Z,14.55
2022-10-26T14:36:57.417Z,14.39
2022-10-26T14:42:40.174Z,14.15
2022-10-26T14:48:04.306Z,14.09
2022-10-26T14:53:33.873Z,14.04
2022-10-26T14:58:56.762Z,13.93
2022-10-26T15:04:36.730Z,13.86
2022-10-26T15:09:58.621Z,13.69
2022-10-26T15:15:23.269Z,13.59
2022-10-26T15:20:50.009Z,13.61
2022-10-26T15:26:12.585Z,13.65
2022-10-26T15:31:34.584Z,13.56
2022-10-26T15:36:56.613Z,13.49
2022-10-26T15:42:18.721Z,13.38
2022-10-26T15:47:40.616Z,13.23
2022-10-26T15:53:09.523Z,13.22
2022-10-26T15:58:32.099Z,13.08
2022-10-26T16:03:54.546Z,12.98
2022-10-26T16:09:18.089Z,12.92
2022-10-26T16:15:04.287Z,12.76
2022-10-26T16:20:24.682Z,12.66
2022-10-26T16:25:46.817Z,12.58
2022-10-26T16:31:12.071Z,12.48
2022-10-26T16:36:34.649Z,12.43
2022-10-26T16:41:56.538Z,12.34
2022-10-26T16:47:18.382Z,12.25
2022-10-26T16:52:40.566Z,12.19
2022-10-26T16:58:02.386Z,12.18
2022-10-26T17:03:24.342Z,12.13
2022-10-26T17:08:46.558Z,12.04
2022-10-26T17:14:08.584Z,12.00
2022-10-26T17:19:30.415Z,11.90
2022-10-26T17:24:52.232Z,11.86
2022-10-26T17:30:14.242Z,11.82
2022-10-26T17:35:36.310Z,11.72
2022-10-26T17:41:06.330Z,11.72
2022-10-26T17:46:28.236Z,11.69
2022-10-26T17:51:50.038Z,11.61
2022-10-26T17:57:11.834Z,11.56
2022-10-26T18:02:33.767Z,11.55
2022-10-26T18:07:55.784Z,11.54
2022-10-26T18:13:17.920Z,11.48
2022-10-26T18:18:40.992Z,11.43
2022-10-26T18:24:03.157Z,11.36
2022-10-26T18:29:24.999Z,11.29
2022-10-26T18:34:46.798Z,11.28
2022-10-26T18:40:09.304Z,11.21
2022-10-26T18:45:31.397Z,11.16
2022-10-26T18:50:53.220Z,10.97
2022-10-26T18:56:17.558Z,10.80
2022-10-26T19:01:39.735Z,10.68
2022-10-26T19:07:01.766Z,10.61
2022-10-26T19:12:23.664Z,10.63
2022-10-26T19:17:45.534Z,10.57
2022-10-26T19:23:07.484Z,10.63
2022-10-26T19:28:29.918Z,10.69
2022-10-26T19:33:52.178Z,10.58
2022-10-26T19:39:17.894Z,10.54
2022-10-26T19:44:39.841Z,10.74
2022-10-26T19:50:02.946Z,10.72
2022-10-26T19:55:24.777Z,10.85
2022-10-26T20:00:46.849Z,11.02
2022-10-26T20:06:10.394Z,11.05
2022-10-26T20:11:32.390Z,11.08
2022-10-26T20:16:57.177Z,11.14
2022-10-26T20:22:19.020Z,11.15
2022-10-26T20:27:40.842Z,11.29
2022-10-26T20:33:02.758Z,11.25
2022-10-26T20:38:25.505Z,11.24
2022-10-26T20:43:47.824Z,11.09
2022-10-26T20:49:09.967Z,10.94
2022-10-26T20:54:55.628Z,10.79
2022-10-26T21:00:18.110Z,10.73
2022-10-26T21:05:46.023Z,10.67
2022-10-26T21:11:07.937Z,10.51
2022-10-26T21:16:29.805Z,10.52
2022-10-26T21:21:51.787Z,10.39
2022-10-26T21:27:13.619Z,10.29
2022-10-26T21:32:35.600Z,10.30
2022-10-26T21:37:57.415Z,10.29
2022-10-26T21:43:19.351Z,10.23
2022-10-26T21:48:41.863Z,10.20
2022-10-26T21:54:04.283Z,10.10
2022-10-26T21:59:26.250Z,9.96
2022-10-26T22:04:48.086Z,9.93
2022-10-26T22:10:10.962Z,9.88
2022-10-26T22:15:33.458Z,9.80
2022-10-26T22:20:58.729Z,9.70
2022-10-26T22:26:22.860Z,9.53
2022-10-26T22:31:44.715Z,9.48
2022-10-26T22:37:06.655Z,9.30
2022-10-26T22:42:28.481Z,9.21
2022-10-26T22:47:50.394Z,9.21
2022-10-26T22:53:12.328Z,9.21
2022-10-26T22:58:35.378Z,9.12
2022-10-26T23:03:57.218Z,9.10
2022-10-26T23:09:19.040Z,9.09
2022-10-26T23:14:40.880Z,9.05
2022-10-26T23:20:02.754Z,8.87
2022-10-26T23:25:24.833Z,8.88
2022-10-26T23:30:47.511Z,8.74
2022-10-26T23:36:09.428Z,8.67
2022-10-26T23:41:31.293Z,8.59
2022-10-26T23:46:53.332Z,8.61
2022-10-26T23:52:15.586Z,8.54
2022-10-26T23:57:39.346Z,8.46
